This demonstration page uses our WeatherBlox Daily Observations layout. Learn more.

36.19886, -115.1175

Hourly Observations for July 29, 2019

Temp ( °F °C ) Dew Point ( °F °C ) Humidity (%) Winds ( mph kmh ) Pressure ( in mb ) Visibility ( mi km ) Precip ( " mm )
12:53 am 00:53 Clear 96 35.6 34 1.1 11 11 SW 9 15 29.77 1008 10 16.09344 0 0
1:53 am 01:53 Clear 91 32.8 36 2.2 14 14 NW 7 11 29.77 1008 10 16.09344 0 0
2:53 am 02:53 Clear 90 32.2 40 4.4 17 17 NW 5 7 29.77 1008 10 16.09344 0 0
3:53 am 03:53 Clear 87 30.6 41 5 20 20 ENE 3 6 29.77 1008 10 16.09344 0 0
4:53 am 04:53 Clear 86 30 38 3.3 18 18 N 3 6 29.77 1008 10 16.09344 0 0
5:53 am 05:53 Sunny 84 28.9 38 3.3 19 19 N 5 7 29.8 1009 10 16.09344 0 0
6:53 am 06:53 Sunny 85 29.4 38 3.3 19 19 NNW 5 7 29.8 1009 10 16.09344 0 0
7:53 am 07:53 Sunny 90 32.2 38 3.3 16 16 Calm 29.8 1009 10 16.09344 0 0
8:53 am 08:53 Sunny 94 34.4 39 3.9 15 15 SE 3 6 29.83 1010 10 16.09344 0 0
9:53 am 09:53 Sunny 102 38.9 32 0 9 9 S 13 20 29.8 1009 10 16.09344 0 0
10:53 am 10:53 Sunny 105 40.6 27 -2.8 6 6 S 13 20 29.8 1009 10 16.09344 0 0
11:53 am 11:53 Sunny 108 42.2 30 -1.1 7 7 SSE 16 26 29.77 1008 10 16.09344 0 0
12:53 pm 12:53 Sunny 109 42.8 32 0 7 7 S 15 24 29.74 1007 10 16.09344 0 0
1:53 pm 13:53 Sunny 110 43.3 28 -2.2 6 6 SSW 14 22 29.74 1007 10 16.09344 0 0
2:53 pm 14:53 Sunny 110 43.3 26 -3.3 5 5 SSW 10 17 29.71 1006 10 16.09344 0 0
3:53 pm 15:53 Sunny 110 43.3 22 -5.6 4 4 S 7 11 29.71 1006 10 16.09344 0 0
4:53 pm 16:53 Sunny 110 43.3 19 -7.2 4 4 S 16 26 29.68 1005 10 16.09344 0 0
5:53 pm 17:53 Sunny 110 43.3 19 -7.2 4 4 SSW 18 30 29.68 1005 10 16.09344 0 0
6:53 pm 18:53 Sunny 108 42.2 18 -7.8 4 4 SW 16 26 29.68 1005 10 16.09344 0 0
7:53 pm 19:53 Clear 105 40.6 18 -7.8 4 4 SSW 8 13 29.68 1005 10 16.09344 0 0
8:53 pm 20:53 Clear 102 38.9 21 -6.1 5 5 SSW 8 13 29.71 1006 10 16.09344 0 0
9:53 pm 21:53 Clear 100 37.8 23 -5 6 6 SW 10 17 29.71 1006 10 16.09344 0 0
10:53 pm 22:53 Clear 98 36.7 24 -4.4 7 7 SW 8 13 29.71 1006 10 16.09344 0 0
11:53 pm 23:53 Clear 99 37.2 23 -5 6 6 WSW 9 15 29.71 1006 10 16.09344 0 0

Powered by AerisWeather